sensor_id;sensor_type;location;lat;lon;timestamp;pressure;altitude;pressure_sealevel;temperature
74043;BMP280;62384;53.600;10.040;2022-08-27T00:01:30;100469.94;;;20.45
74043;BMP280;62384;53.600;10.040;2022-08-27T00:03:55;100485.94;;;20.43
74043;BMP280;62384;53.600;10.040;2022-08-27T00:06:22;100496.44;;;20.45
74043;BMP280;62384;53.600;10.040;2022-08-27T00:08:49;100495.53;;;20.35
74043;BMP280;62384;53.600;10.040;2022-08-27T00:11:15;100498.59;;;20.37
74043;BMP280;62384;53.600;10.040;2022-08-27T00:13:42;100499.13;;;20.32
74043;BMP280;62384;53.600;10.040;2022-08-27T00:16:09;100503.78;;;20.32
74043;BMP280;62384;53.600;10.040;2022-08-27T00:18:36;100499.13;;;20.32
74043;BMP280;62384;53.600;10.040;2022-08-27T00:21:02;100520.00;;;20.23
74043;BMP280;62384;53.600;10.040;2022-08-27T00:23:28;100513.09;;;20.18
74043;BMP280;62384;53.600;10.040;2022-08-27T00:25:53;100505.38;;;20.17
74043;BMP280;62384;53.600;10.040;2022-08-27T00:28:19;100515.13;;;20.14
74043;BMP280;62384;53.600;10.040;2022-08-27T00:30:44;100508.25;;;20.10
74043;BMP280;62384;53.600;10.040;2022-08-27T00:33:10;100498.78;;;20.14
74043;BMP280;62384;53.600;10.040;2022-08-27T00:35:36;100509.66;;;20.14
74043;BMP280;62384;53.600;10.040;2022-08-27T00:38:02;100504.41;;;20.07
74043;BMP280;62384;53.600;10.040;2022-08-27T00:40:30;100510.19;;;20.09
74043;BMP280;62384;53.600;10.040;2022-08-27T00:42:56;100500.94;;;20.07
74043;BMP280;62384;53.600;10.040;2022-08-27T00:45:22;100519.88;;;20.10
74043;BMP280;62384;53.600;10.040;2022-08-27T00:47:52;100535.50;;;20.10
74043;BMP280;62384;53.600;10.040;2022-08-27T00:50:31;100545.38;;;20.04
74043;BMP280;62384;53.600;10.040;2022-08-27T00:53:00;100542.31;;;20.02
74043;BMP280;62384;53.600;10.040;2022-08-27T00:55:31;100551.66;;;20.01
74043;BMP280;62384;53.600;10.040;2022-08-27T00:58:08;100558.66;;;20.02
74043;BMP280;62384;53.600;10.040;2022-08-27T01:00:35;100581.63;;;20.01
74043;BMP280;62384;53.600;10.040;2022-08-27T01:03:00;100586.38;;;20.00
74043;BMP280;62384;53.600;10.040;2022-08-27T01:05:26;100593.69;;;20.03
74043;BMP280;62384;53.600;10.040;2022-08-27T01:07:55;100603.13;;;19.99
74043;BMP280;62384;53.600;10.040;2022-08-27T01:10:23;100617.06;;;20.01
74043;BMP280;62384;53.600;10.040;2022-08-27T01:12:50;100617.06;;;20.01
74043;BMP280;62384;53.600;10.040;2022-08-27T01:15:19;100624.94;;;19.99
74043;BMP280;62384;53.600;10.040;2022-08-27T01:17:46;100613.50;;;19.88
74043;BMP280;62384;53.600;10.040;2022-08-27T01:20:18;100642.84;;;20.00
74043;BMP280;62384;53.600;10.040;2022-08-27T01:25:29;100652.25;;;19.95
74043;BMP280;62384;53.600;10.040;2022-08-27T01:28:00;100646.03;;;19.95
74043;BMP280;62384;53.600;10.040;2022-08-27T01:30:27;100658.03;;;19.97
74043;BMP280;62384;53.600;10.040;2022-08-27T01:32:52;100644.66;;;19.87
74043;BMP280;62384;53.600;10.040;2022-08-27T01:35:19;100666.91;;;20.01
74043;BMP280;62384;53.600;10.040;2022-08-27T01:37:47;100667.41;;;19.96
74043;BMP280;62384;53.600;10.040;2022-08-27T01:40:15;100682.56;;;19.97
74043;BMP280;62384;53.600;10.040;2022-08-27T01:42:43;100673.91;;;20.02
74043;BMP280;62384;53.600;10.040;2022-08-27T01:45:13;100676.63;;;20.02
74043;BMP280;62384;53.600;10.040;2022-08-27T01:47:39;100676.72;;;19.99
74043;BMP280;62384;53.600;10.040;2022-08-27T01:50:08;100671.34;;;19.95
74043;BMP280;62384;53.600;10.040;2022-08-27T01:52:34;100663.16;;;19.95
74043;BMP280;62384;53.600;10.040;2022-08-27T01:54:59;100652.06;;;19.86
74043;BMP280;62384;53.600;10.040;2022-08-27T01:57:24;100666.97;;;19.98
74043;BMP280;62384;53.600;10.040;2022-08-27T01:59:50;100677.63;;;19.92
74043;BMP280;62384;53.600;10.040;2022-08-27T02:02:17;100670.28;;;19.89
74043;BMP280;62384;53.600;10.040;2022-08-27T02:04:43;100665.53;;;19.93
74043;BMP280;62384;53.600;10.040;2022-08-27T02:07:09;100670.28;;;19.89
74043;BMP280;62384;53.600;10.040;2022-08-27T02:09:35;100657.84;;;19.88
74043;BMP280;62384;53.600;10.040;2022-08-27T02:12:00;100669.50;;;19.89
74043;BMP280;62384;53.600;10.040;2022-08-27T02:14:26;100655.66;;;19.83
74043;BMP280;62384;53.600;10.040;2022-08-27T02:16:52;100661.50;;;19.82
74043;BMP280;62384;53.600;10.040;2022-08-27T02:19:18;100662.53;;;19.88
74043;BMP280;62384;53.600;10.040;2022-08-27T02:21:43;100663.25;;;19.92
74043;BMP280;62384;53.600;10.040;2022-08-27T02:24:09;100659.53;;;19.82
74043;BMP280;62384;53.600;10.040;2022-08-27T02:26:34;100674.63;;;19.87
74043;BMP280;62384;53.600;10.040;2022-08-27T02:29:00;100670.72;;;19.88
74043;BMP280;62384;53.600;10.040;2022-08-27T02:31:25;100687.00;;;19.91
74043;BMP280;62384;53.600;10.040;2022-08-27T02:33:50;100683.59;;;19.87
74043;BMP280;62384;53.600;10.040;2022-08-27T02:36:16;100680.50;;;19.85
74043;BMP280;62384;53.600;10.040;2022-08-27T02:38:42;100689.09;;;19.84
74043;BMP280;62384;53.600;10.040;2022-08-27T02:41:07;100698.72;;;19.88
74043;BMP280;62384;53.600;10.040;2022-08-27T02:43:33;100699.28;;;19.79
74043;BMP280;62384;53.600;10.040;2022-08-27T02:45:58;100697.75;;;19.78
74043;BMP280;62384;53.600;10.040;2022-08-27T02:48:25;100684.72;;;19.70
74043;BMP280;62384;53.600;10.040;2022-08-27T02:50:51;100711.72;;;19.80
74043;BMP280;62384;53.600;10.040;2022-08-27T02:53:16;100702.94;;;19.73
74043;BMP280;62384;53.600;10.040;2022-08-27T02:55:42;100704.03;;;19.75
74043;BMP280;62384;53.600;10.040;2022-08-27T02:58:08;100698.38;;;19.66
74043;BMP280;62384;53.600;10.040;2022-08-27T03:00:33;100699.50;;;19.69
74043;BMP280;62384;53.600;10.040;2022-08-27T03:02:59;100704.94;;;19.69
74043;BMP280;62384;53.600;10.040;2022-08-27T03:05:25;100701.09;;;19.66
74043;BMP280;62384;53.600;10.040;2022-08-27T03:07:51;100703.53;;;19.61
74043;BMP280;62384;53.600;10.040;2022-08-27T03:10:18;100703.19;;;19.59
74043;BMP280;62384;53.600;10.040;2022-08-27T03:12:43;100702.78;;;19.60
74043;BMP280;62384;53.600;10.040;2022-08-27T03:15:11;100710.50;;;19.62
74043;BMP280;62384;53.600;10.040;2022-08-27T03:17:37;100717.16;;;19.61
74043;BMP280;62384;53.600;10.040;2022-08-27T03:20:21;100713.69;;;19.60
74043;BMP280;62384;53.600;10.040;2022-08-27T03:22:47;100726.84;;;19.62
74043;BMP280;62384;53.600;10.040;2022-08-27T03:25:12;100730.72;;;19.64
74043;BMP280;62384;53.600;10.040;2022-08-27T03:27:38;100726.03;;;19.65
74043;BMP280;62384;53.600;10.040;2022-08-27T03:30:05;100727.63;;;19.62
74043;BMP280;62384;53.600;10.040;2022-08-27T03:32:33;100727.72;;;19.59
74043;BMP280;62384;53.600;10.040;2022-08-27T03:34:58;100731.56;;;19.61
74043;BMP280;62384;53.600;10.040;2022-08-27T03:37:24;100723.44;;;19.58
74043;BMP280;62384;53.600;10.040;2022-08-27T03:39:50;100728.88;;;19.58
74043;BMP280;62384;53.600;10.040;2022-08-27T03:42:16;100735.09;;;19.58
74043;BMP280;62384;53.600;10.040;2022-08-27T03:44:41;100735.88;;;19.59
74043;BMP280;62384;53.600;10.040;2022-08-27T03:47:07;100748.31;;;19.60
74043;BMP280;62384;53.600;10.040;2022-08-27T03:49:32;100737.88;;;19.55
74043;BMP280;62384;53.600;10.040;2022-08-27T03:51:57;100749.50;;;19.59
74043;BMP280;62384;53.600;10.040;2022-08-27T03:54:22;100750.41;;;19.52
74043;BMP280;62384;53.600;10.040;2022-08-27T03:56:49;100741.53;;;19.48
74043;BMP280;62384;53.600;10.040;2022-08-27T03:59:14;100753.53;;;19.51
74043;BMP280;62384;53.600;10.040;2022-08-27T04:01:39;100751.66;;;19.48
74043;BMP280;62384;53.600;10.040;2022-08-27T04:04:05;100751.72;;;19.44
74043;BMP280;62384;53.600;10.040;2022-08-27T04:06:32;100759.06;;;19.47
74043;BMP280;62384;53.600;10.040;2022-08-27T04:08:59;100752.91;;;19.43
74043;BMP280;62384;53.600;10.040;2022-08-27T04:11:25;100754.16;;;19.39
74043;BMP280;62384;53.600;10.040;2022-08-27T04:13:54;100753.78;;;19.37
74043;BMP280;62384;53.600;10.040;2022-08-27T04:16:19;100753.44;;;19.35
74043;BMP280;62384;53.600;10.040;2022-08-27T04:18:44;100755.69;;;19.40
74043;BMP280;62384;53.600;10.040;2022-08-27T04:21:12;100748.75;;;19.35
74043;BMP280;62384;53.600;10.040;2022-08-27T04:23:38;100761.47;;;19.42
74043;BMP280;62384;53.600;10.040;2022-08-27T04:26:05;100757.75;;;19.32
74043;BMP280;62384;53.600;10.040;2022-08-27T04:28:31;100763.03;;;19.43
74043;BMP280;62384;53.600;10.040;2022-08-27T04:30:57;100763.47;;;19.38
74043;BMP280;62384;53.600;10.040;2022-08-27T04:33:22;100773.91;;;19.43
74043;BMP280;62384;53.600;10.040;2022-08-27T04:35:56;100771.25;;;19.39
74043;BMP280;62384;53.600;10.040;2022-08-27T04:38:21;100765.31;;;19.44
74043;BMP280;62384;53.600;10.040;2022-08-27T04:40:47;100761.25;;;19.33
74043;BMP280;62384;53.600;10.040;2022-08-27T04:43:30;100774.00;;;19.36
74043;BMP280;62384;53.600;10.040;2022-08-27T04:45:56;100769.03;;;19.34
74043;BMP280;62384;53.600;10.040;2022-08-27T04:48:21;100762.00;;;19.33
74043;BMP280;62384;53.600;10.040;2022-08-27T04:50:47;100776.00;;;19.35
74043;BMP280;62384;53.600;10.040;2022-08-27T04:53:14;100772.19;;;19.29
74043;BMP280;62384;53.600;10.040;2022-08-27T04:55:41;100780.28;;;19.33
74043;BMP280;62384;53.600;10.040;2022-08-27T04:58:07;100771.41;;;19.29
74043;BMP280;62384;53.600;10.040;2022-08-27T05:00:32;100778.75;;;19.32
74043;BMP280;62384;53.600;10.040;2022-08-27T05:02:57;100795.19;;;19.25
74043;BMP280;62384;53.600;10.040;2022-08-27T05:05:26;100790.53;;;19.25
74043;BMP280;62384;53.600;10.040;2022-08-27T05:07:51;100791.25;;;19.29
74043;BMP280;62384;53.600;10.040;2022-08-27T05:10:16;100790.47;;;19.29
74043;BMP280;62384;53.600;10.040;2022-08-27T05:12:42;100790.53;;;19.25
74043;BMP280;62384;53.600;10.040;2022-08-27T05:15:07;100784.38;;;19.21
74043;BMP280;62384;53.600;10.040;2022-08-27T05:17:32;100802.63;;;19.24
74043;BMP280;62384;53.600;10.040;2022-08-27T05:19:58;100791.72;;;19.24
74043;BMP280;62384;53.600;10.040;2022-08-27T05:22:23;100793.31;;;19.22
74043;BMP280;62384;53.600;10.040;2022-08-27T05:24:49;100801.38;;;19.29
74043;BMP280;62384;53.600;10.040;2022-08-27T05:27:14;100807.28;;;19.24
74043;BMP280;62384;53.600;10.040;2022-08-27T05:29:40;100804.63;;;19.20
74043;BMP280;62384;53.600;10.040;2022-08-27T05:32:05;100814.25;;;19.25
74043;BMP280;62384;53.600;10.040;2022-08-27T05:34:30;100813.56;;;19.21
74043;BMP280;62384;53.600;10.040;2022-08-27T05:36:56;100819.00;;;19.21
74043;BMP280;62384;53.600;10.040;2022-08-27T05:39:21;100807.72;;;19.19
74043;BMP280;62384;53.600;10.040;2022-08-27T05:41:46;100820.91;;;19.24
74043;BMP280;62384;53.600;10.040;2022-08-27T05:44:12;100813.63;;;19.17
74043;BMP280;62384;53.600;10.040;2022-08-27T05:46:39;100819.75;;;19.21
74043;BMP280;62384;53.600;10.040;2022-08-27T05:49:04;100833.06;;;19.16
74043;BMP280;62384;53.600;10.040;2022-08-27T05:51:33;100823.81;;;19.10
74043;BMP280;62384;53.600;10.040;2022-08-27T05:54:03;100828.09;;;19.11
74043;BMP280;62384;53.600;10.040;2022-08-27T05:56:32;100834.69;;;19.13
74043;BMP280;62384;53.600;10.040;2022-08-27T05:58:57;100833.50;;;19.14
74043;BMP280;62384;53.600;10.040;2022-08-27T06:01:44;100836.97;;;19.15
74043;BMP280;62384;53.600;10.040;2022-08-27T06:04:11;100841.66;;;19.14
74043;BMP280;62384;53.600;10.040;2022-08-27T06:06:39;100849.00;;;19.17
74043;BMP280;62384;53.600;10.040;2022-08-27T06:09:05;100863.91;;;19.09
74043;BMP280;62384;53.600;10.040;2022-08-27T06:11:57;100850.00;;;19.04
74043;BMP280;62384;53.600;10.040;2022-08-27T06:14:23;100845.34;;;19.01
74043;BMP280;62384;53.600;10.040;2022-08-27T06:16:48;100858.72;;;19.15
74043;BMP280;62384;53.600;10.040;2022-08-27T06:19:15;100866.16;;;19.14
74043;BMP280;62384;53.600;10.040;2022-08-27T06:21:41;100872.81;;;19.10
74043;BMP280;62384;53.600;10.040;2022-08-27T06:24:07;100860.94;;;19.00
74043;BMP280;62384;53.600;10.040;2022-08-27T06:26:33;100867.13;;;19.01
74043;BMP280;62384;53.600;10.040;2022-08-27T06:29:03;100863.19;;;19.02
74043;BMP280;62384;53.600;10.040;2022-08-27T06:31:29;100877.19;;;19.04
74043;BMP280;62384;53.600;10.040;2022-08-27T06:33:59;100879.66;;;18.95
74043;BMP280;62384;53.600;10.040;2022-08-27T06:36:26;100874.28;;;18.91
74043;BMP280;62384;53.600;10.040;2022-08-27T06:38:52;100872.78;;;18.83
74043;BMP280;62384;53.600;10.040;2022-08-27T06:41:20;100854.94;;;18.78
74043;BMP280;62384;53.600;10.040;2022-08-27T06:43:46;100868.06;;;18.87
74043;BMP280;62384;53.600;10.040;2022-08-27T06:46:15;100875.06;;;18.88
74043;BMP280;62384;53.600;10.040;2022-08-27T06:48:42;100875.38;;;18.94
74043;BMP280;62384;53.600;10.040;2022-08-27T06:51:14;100902.91;;;18.99
74043;BMP280;62384;53.600;10.040;2022-08-27T06:53:42;100898.75;;;18.91
74043;BMP280;62384;53.600;10.040;2022-08-27T06:56:10;100873.03;;;18.96
74043;BMP280;62384;53.600;10.040;2022-08-27T06:58:36;100897.16;;;18.94
74043;BMP280;62384;53.600;10.040;2022-08-27T07:01:14;100882.44;;;18.88
74043;BMP280;62384;53.600;10.040;2022-08-27T07:03:39;100889.03;;;18.90
74043;BMP280;62384;53.600;10.040;2022-08-27T07:06:06;100883.34;;;18.81
74043;BMP280;62384;53.600;10.040;2022-08-27T07:08:32;100870.03;;;18.87
74043;BMP280;62384;53.600;10.040;2022-08-27T07:10:58;100892.16;;;18.89
74043;BMP280;62384;53.600;10.040;2022-08-27T07:13:23;100913.97;;;18.85
74043;BMP280;62384;53.600;10.040;2022-08-27T07:15:49;100900.78;;;18.83
74043;BMP280;62384;53.600;10.040;2022-08-27T07:18:14;100911.66;;;18.83
74043;BMP280;62384;53.600;10.040;2022-08-27T07:20:40;100922.94;;;18.82
74043;BMP280;62384;53.600;10.040;2022-08-27T07:23:06;100935.50;;;18.72
74043;BMP280;62384;53.600;10.040;2022-08-27T07:25:32;100921.91;;;18.69
74043;BMP280;62384;53.600;10.040;2022-08-27T07:27:57;100924.25;;;18.70
74043;BMP280;62384;53.600;10.040;2022-08-27T07:30:24;100924.19;;;18.77
74043;BMP280;62384;53.600;10.040;2022-08-27T07:32:52;100927.66;;;18.78
74043;BMP280;62384;53.600;10.040;2022-08-27T07:35:17;100916.97;;;18.60
74043;BMP280;62384;53.600;10.040;2022-08-27T07:37:43;100935.09;;;18.74
74043;BMP280;62384;53.600;10.040;2022-08-27T07:40:13;100940.94;;;18.69
74043;BMP280;62384;53.600;10.040;2022-08-27T07:42:40;100927.78;;;18.67
74043;BMP280;62384;53.600;10.040;2022-08-27T07:45:25;100945.19;;;18.73
74043;BMP280;62384;53.600;10.040;2022-08-27T07:47:51;100945.56;;;18.75
74043;BMP280;62384;53.600;10.040;2022-08-27T07:50:17;100947.56;;;18.71
74043;BMP280;62384;53.600;10.040;2022-08-27T07:52:42;100950.22;;;18.75
74043;BMP280;62384;53.600;10.040;2022-08-27T07:55:09;100940.56;;;18.70
74043;BMP280;62384;53.600;10.040;2022-08-27T07:57:35;100948.19;;;18.82
74043;BMP280;62384;53.600;10.040;2022-08-27T08:00:01;100972.72;;;18.79
74043;BMP280;62384;53.600;10.040;2022-08-27T08:02:26;100977.31;;;18.86
74043;BMP280;62384;53.600;10.040;2022-08-27T08:04:52;100980.09;;;18.82
74043;BMP280;62384;53.600;10.040;2022-08-27T08:07:17;100964.50;;;18.82
74043;BMP280;62384;53.600;10.040;2022-08-27T08:09:43;100970.03;;;18.75
74043;BMP280;62384;53.600;10.040;2022-08-27T08:12:08;100971.22;;;18.74
74043;BMP280;62384;53.600;10.040;2022-08-27T08:14:34;100963.50;;;18.69
74043;BMP280;62384;53.600;10.040;2022-08-27T08:17:01;100970.09;;;18.72
74043;BMP280;62384;53.600;10.040;2022-08-27T08:19:27;100950.03;;;18.55
74043;BMP280;62384;53.600;10.040;2022-08-27T08:21:53;100963.94;;;18.64
74043;BMP280;62384;53.600;10.040;2022-08-27T08:24:18;100957.72;;;18.67
74043;BMP280;62384;53.600;10.040;2022-08-27T08:26:44;100960.81;;;18.66
74043;BMP280;62384;53.600;10.040;2022-08-27T08:29:10;100973.22;;;18.70
74043;BMP280;62384;53.600;10.040;2022-08-27T08:31:35;100960.25;;;18.81
74043;BMP280;62384;53.600;10.040;2022-08-27T08:34:00;100997.19;;;18.79
74043;BMP280;62384;53.600;10.040;2022-08-27T08:36:26;100993.66;;;18.86
74043;BMP280;62384;53.600;10.040;2022-08-27T08:38:52;101005.03;;;18.73
74043;BMP280;62384;53.600;10.040;2022-08-27T08:43:52;101033.28;;;18.87
74043;BMP280;62384;53.600;10.040;2022-08-27T08:46:37;101033.59;;;18.92
74043;BMP280;62384;53.600;10.040;2022-08-27T08:49:15;101038.19;;;18.99
74043;BMP280;62384;53.600;10.040;2022-08-27T08:51:42;101061.50;;;19.03
74043;BMP280;62384;53.600;10.040;2022-08-27T08:54:14;101053.25;;;19.10
74043;BMP280;62384;53.600;10.040;2022-08-27T08:59:20;101079.31;;;19.11
74043;BMP280;62384;53.600;10.040;2022-08-27T09:01:47;101064.97;;;18.66
74043;BMP280;62384;53.600;10.040;2022-08-27T09:04:13;101091.56;;;18.89
74043;BMP280;62384;53.600;10.040;2022-08-27T09:14:37;101099.34;;;18.91
74043;BMP280;62384;53.600;10.040;2022-08-27T09:17:05;101093.16;;;18.87
74043;BMP280;62384;53.600;10.040;2022-08-27T09:19:31;101107.88;;;18.89
74043;BMP280;62384;53.600;10.040;2022-08-27T09:22:10;101099.66;;;18.96
74043;BMP280;62384;53.600;10.040;2022-08-27T09:27:24;101117.13;;;18.99
74043;BMP280;62384;53.600;10.040;2022-08-27T09:29:52;101114.03;;;18.97
74043;BMP280;62384;53.600;10.040;2022-08-27T09:32:28;101107.81;;;18.96
74043;BMP280;62384;53.600;10.040;2022-08-27T09:34:58;101119.44;;;19.04
74043;BMP280;62384;53.600;10.040;2022-08-27T09:37:26;101116.72;;;19.04
74043;BMP280;62384;53.600;10.040;2022-08-27T09:39:59;101148.50;;;19.10
74043;BMP280;62384;53.600;10.040;2022-08-27T09:44:54;101154.44;;;18.98
74043;BMP280;62384;53.600;10.040;2022-08-27T09:47:21;101137.38;;;18.98
74043;BMP280;62384;53.600;10.040;2022-08-27T09:49:46;101112.63;;;18.81
74043;BMP280;62384;53.600;10.040;2022-08-27T09:52:32;101142.00;;;19.01
74043;BMP280;62384;53.600;10.040;2022-08-27T09:54:58;101123.78;;;18.94
74043;BMP280;62384;53.600;10.040;2022-08-27T09:57:40;101138.19;;;18.95
74043;BMP280;62384;53.600;10.040;2022-08-27T10:00:13;101124.50;;;18.98
74043;BMP280;62384;53.600;10.040;2022-08-27T10:02:48;101121.34;;;19.07
74043;BMP280;62384;53.600;10.040;2022-08-27T10:05:21;101142.63;;;19.15
74043;BMP280;62384;53.600;10.040;2022-08-27T10:07:58;101146.97;;;19.09
74043;BMP280;62384;53.600;10.040;2022-08-27T10:10:49;101172.97;;;19.17
74043;BMP280;62384;53.600;10.040;2022-08-27T10:13:25;101176.03;;;19.19
74043;BMP280;62384;53.600;10.040;2022-08-27T10:16:01;101188.50;;;19.20
74043;BMP280;62384;53.600;10.040;2022-08-27T10:18:55;101198.19;;;19.21
74043;BMP280;62384;53.600;10.040;2022-08-27T10:21:29;101202.13;;;19.17
74043;BMP280;62384;53.600;10.040;2022-08-27T10:35:22;101239.31;;;19.34
74043;BMP280;62384;53.600;10.040;2022-08-27T10:38:14;101247.84;;;19.36
74043;BMP280;62384;53.600;10.040;2022-08-27T10:45:48;101243.38;;;19.56
74043;BMP280;62384;53.600;10.040;2022-08-27T10:48:34;101235.94;;;19.60
74043;BMP280;62384;53.600;10.040;2022-08-27T10:51:19;101241.41;;;19.60
74043;BMP280;62384;53.600;10.040;2022-08-27T10:54:00;101252.63;;;19.62
74043;BMP280;62384;53.600;10.040;2022-08-27T10:56:39;101269.38;;;19.64
74043;BMP280;62384;53.600;10.040;2022-08-27T11:02:35;101267.81;;;19.63
74043;BMP280;62384;53.600;10.040;2022-08-27T11:05:23;101259.31;;;19.57
74043;BMP280;62384;53.600;10.040;2022-08-27T11:07:55;101257.75;;;19.60
74043;BMP280;62384;53.600;10.040;2022-08-27T11:10:28;101266.25;;;19.65
74043;BMP280;62384;53.600;10.040;2022-08-27T11:12:58;101263.81;;;19.71
74043;BMP280;62384;53.600;10.040;2022-08-27T11:15:32;101278.19;;;19.78
74043;BMP280;62384;53.600;10.040;2022-08-27T11:18:03;101284.03;;;19.77
74043;BMP280;62384;53.600;10.040;2022-08-27T11:20:35;101282.47;;;19.76
74043;BMP280;62384;53.600;10.040;2022-08-27T11:25:51;101275.94;;;19.70
74043;BMP280;62384;53.600;10.040;2022-08-27T11:28:25;101304.53;;;19.89
74043;BMP280;62384;53.600;10.040;2022-08-27T11:31:47;101308.03;;;19.89
74043;BMP280;62384;53.600;10.040;2022-08-27T11:36:27;101343.06;;;19.91
74043;BMP280;62384;53.600;10.040;2022-08-27T11:44:54;101345.19;;;20.10
74043;BMP280;62384;53.600;10.040;2022-08-27T11:47:25;101352.88;;;20.18
74043;BMP280;62384;53.600;10.040;2022-08-27T11:49:59;101365.41;;;20.16
74043;BMP280;62384;53.600;10.040;2022-08-27T11:52:28;101355.69;;;20.11
74043;BMP280;62384;53.600;10.040;2022-08-27T11:57:36;101376.41;;;20.42
74043;BMP280;62384;53.600;10.040;2022-08-27T12:02:36;101372.03;;;20.48
74043;BMP280;62384;53.600;10.040;2022-08-27T12:05:22;101369.56;;;20.57
74043;BMP280;62384;53.600;10.040;2022-08-27T12:07:50;101359.50;;;20.51
74043;BMP280;62384;53.600;10.040;2022-08-27T12:10:25;101388.56;;;20.64
74043;BMP280;62384;53.600;10.040;2022-08-27T12:26:40;101393.03;;;21.08
74043;BMP280;62384;53.600;10.040;2022-08-27T12:34:51;101404.81;;;21.32
74043;BMP280;62384;53.600;10.040;2022-08-27T12:37:23;101404.03;;;21.31
74043;BMP280;62384;53.600;10.040;2022-08-27T12:39:50;101409.19;;;21.49
74043;BMP280;62384;53.600;10.040;2022-08-27T12:42:18;101421.00;;;21.65
74043;BMP280;62384;53.600;10.040;2022-08-27T12:44:45;101426.34;;;21.96
74043;BMP280;62384;53.600;10.040;2022-08-27T12:47:11;101416.72;;;21.88
74043;BMP280;62384;53.600;10.040;2022-08-27T12:49:44;101428.25;;;22.18
74043;BMP280;62384;53.600;10.040;2022-08-27T12:52:40;101430.56;;;22.00
74043;BMP280;62384;53.600;10.040;2022-08-27T12:58:12;101434.31;;;22.29
74043;BMP280;62384;53.600;10.040;2022-08-27T13:05:50;101432.66;;;22.71
74043;BMP280;62384;53.600;10.040;2022-08-27T13:08:31;101436.78;;;22.79
74043;BMP280;62384;53.600;10.040;2022-08-27T13:11:07;101443.63;;;23.07
74043;BMP280;62384;53.600;10.040;2022-08-27T13:13:34;101441.22;;;23.25
74043;BMP280;62384;53.600;10.040;2022-08-27T13:16:02;101440.75;;;23.30
74043;BMP280;62384;53.600;10.040;2022-08-27T13:18:29;101436.59;;;23.38
74043;BMP280;62384;53.600;10.040;2022-08-27T13:21:06;101444.56;;;23.48
74043;BMP280;62384;53.600;10.040;2022-08-27T13:23:33;101440.84;;;23.71
74043;BMP280;62384;53.600;10.040;2022-08-27T13:26:04;101435.47;;;23.67
74043;BMP280;62384;53.600;10.040;2022-08-27T13:28:30;101438.81;;;23.59
74043;BMP280;62384;53.600;10.040;2022-08-27T13:30:56;101438.16;;;23.39
74043;BMP280;62384;53.600;10.040;2022-08-27T13:33:26;101440.53;;;23.37
74043;BMP280;62384;53.600;10.040;2022-08-27T13:35:52;101427.03;;;23.30
74043;BMP280;62384;53.600;10.040;2022-08-27T13:38:20;101425.63;;;23.54
74043;BMP280;62384;53.600;10.040;2022-08-27T13:41:28;101422.03;;;23.73
74043;BMP280;62384;53.600;10.040;2022-08-27T13:43:47;101421.28;;;23.85
74043;BMP280;62384;53.600;10.040;2022-08-27T13:48:42;101423.03;;;24.20
74043;BMP280;62384;53.600;10.040;2022-08-27T13:51:10;101415.19;;;24.06
74043;BMP280;62384;53.600;10.040;2022-08-27T13:53:42;101420.09;;;24.14
74043;BMP280;62384;53.600;10.040;2022-08-27T13:56:29;101412.25;;;24.13
74043;BMP280;62384;53.600;10.040;2022-08-27T13:59:22;101415.38;;;24.15
74043;BMP280;62384;53.600;10.040;2022-08-27T14:02:00;101415.69;;;24.17
74043;BMP280;62384;53.600;10.040;2022-08-27T14:04:35;101419.22;;;24.17
74043;BMP280;62384;53.600;10.040;2022-08-27T14:07:09;101412.06;;;24.07
74043;BMP280;62384;53.600;10.040;2022-08-27T14:09:41;101411.88;;;24.27
74043;BMP280;62384;53.600;10.040;2022-08-27T14:12:08;101406.84;;;24.26
74043;BMP280;62384;53.600;10.040;2022-08-27T14:14:37;101411.47;;;24.12
74043;BMP280;62384;53.600;10.040;2022-08-27T14:17:04;101408.03;;;24.12
74043;BMP280;62384;53.600;10.040;2022-08-27T14:19:33;101407.38;;;23.92
74043;BMP280;62384;53.600;10.040;2022-08-27T14:22:00;101401.38;;;23.68
74043;BMP280;62384;53.600;10.040;2022-08-27T14:24:26;101410.94;;;23.76
74043;BMP280;62384;53.600;10.040;2022-08-27T14:26:54;101405.13;;;23.74
74043;BMP280;62384;53.600;10.040;2022-08-27T14:29:26;101401.88;;;23.63
74043;BMP280;62384;53.600;10.040;2022-08-27T14:31:51;101409.22;;;23.66
74043;BMP280;62384;53.600;10.040;2022-08-27T14:34:17;101393.72;;;23.60
74043;BMP280;62384;53.600;10.040;2022-08-27T14:36:42;101390.31;;;23.72
74043;BMP280;62384;53.600;10.040;2022-08-27T14:39:09;101394.78;;;23.66
74043;BMP280;62384;53.600;10.040;2022-08-27T14:41:34;101391.31;;;23.78
74043;BMP280;62384;53.600;10.040;2022-08-27T14:44:00;101393.63;;;24.08
74043;BMP280;62384;53.600;10.040;2022-08-27T14:46:28;101397.19;;;24.46
74043;BMP280;62384;53.600;10.040;2022-08-27T14:48:55;101391.59;;;24.75
74043;BMP280;62384;53.600;10.040;2022-08-27T14:51:24;101393.66;;;25.42
74043;BMP280;62384;53.600;10.040;2022-08-27T14:53:51;101397.31;;;25.74
74043;BMP280;62384;53.600;10.040;2022-08-27T14:56:18;101398.63;;;25.69
74043;BMP280;62384;53.600;10.040;2022-08-27T14:58:43;101389.78;;;25.31
74043;BMP280;62384;53.600;10.040;2022-08-27T15:01:09;101402.84;;;25.83
74043;BMP280;62384;53.600;10.040;2022-08-27T15:03:37;101407.91;;;26.06
74043;BMP280;62384;53.600;10.040;2022-08-27T15:06:03;101401.59;;;26.27
74043;BMP280;62384;53.600;10.040;2022-08-27T15:08:30;101407.78;;;26.09
74043;BMP280;62384;53.600;10.040;2022-08-27T15:10:58;101405.09;;;25.97
74043;BMP280;62384;53.600;10.040;2022-08-27T15:13:24;101406.06;;;25.81
74043;BMP280;62384;53.600;10.040;2022-08-27T15:15:49;101400.63;;;25.34
74043;BMP280;62384;53.600;10.040;2022-08-27T15:18:15;101406.84;;;25.48
74043;BMP280;62384;53.600;10.040;2022-08-27T15:20:40;101416.94;;;25.16